sensor_id;sensor_type;location;lat;lon;timestamp;P1;durP1;ratioP1;P2;durP2;ratioP2
21166;SDS011;10741;52.272;9.580;2022-11-09T00:00:50;4.10;;;1.77;;
21166;SDS011;10741;52.272;9.580;2022-11-09T00:03:16;2.43;;;1.50;;
21166;SDS011;10741;52.272;9.580;2022-11-09T00:05:42;3.20;;;1.70;;
21166;SDS011;10741;52.272;9.580;2022-11-09T00:08:09;2.67;;;1.60;;
21166;SDS011;10741;52.272;9.580;2022-11-09T00:10:35;3.93;;;1.67;;
21166;SDS011;10741;52.272;9.580;2022-11-09T00:13:02;3.47;;;1.70;;
21166;SDS011;10741;52.272;9.580;2022-11-09T00:15:28;2.87;;;1.43;;
21166;SDS011;10741;52.272;9.580;2022-11-09T00:17:54;2.13;;;1.60;;
21166;SDS011;10741;52.272;9.580;2022-11-09T00:20:20;2.70;;;1.93;;
21166;SDS011;10741;52.272;9.580;2022-11-09T00:22:46;1.70;;;1.57;;
21166;SDS011;10741;52.272;9.580;2022-11-09T00:25:13;4.20;;;1.80;;
21166;SDS011;10741;52.272;9.580;2022-11-09T00:27:38;2.20;;;1.67;;
21166;SDS011;10741;52.272;9.580;2022-11-09T00:30:04;4.73;;;1.40;;
21166;SDS011;10741;52.272;9.580;2022-11-09T00:32:31;3.17;;;1.50;;
21166;SDS011;10741;52.272;9.580;2022-11-09T00:34:57;2.63;;;1.87;;
21166;SDS011;10741;52.272;9.580;2022-11-09T00:37:22;1.60;;;1.30;;
21166;SDS011;10741;52.272;9.580;2022-11-09T00:39:48;2.80;;;1.37;;
21166;SDS011;10741;52.272;9.580;2022-11-09T00:42:14;2.33;;;1.53;;
21166;SDS011;10741;52.272;9.580;2022-11-09T00:44:40;2.37;;;1.53;;
21166;SDS011;10741;52.272;9.580;2022-11-09T00:47:05;3.40;;;1.67;;
21166;SDS011;10741;52.272;9.580;2022-11-09T00:49:31;2.70;;;1.60;;
21166;SDS011;10741;52.272;9.580;2022-11-09T00:51:57;4.17;;;1.70;;
21166;SDS011;10741;52.272;9.580;2022-11-09T00:54:22;3.40;;;1.80;;
21166;SDS011;10741;52.272;9.580;2022-11-09T00:56:48;2.57;;;1.70;;
21166;SDS011;10741;52.272;9.580;2022-11-09T00:59:14;2.37;;;1.40;;
21166;SDS011;10741;52.272;9.580;2022-11-09T01:01:40;4.30;;;1.63;;
21166;SDS011;10741;52.272;9.580;2022-11-09T01:04:05;4.00;;;1.43;;
21166;SDS011;10741;52.272;9.580;2022-11-09T01:06:31;4.80;;;1.87;;
21166;SDS011;10741;52.272;9.580;2022-11-09T01:08:57;3.93;;;1.30;;
21166;SDS011;10741;52.272;9.580;2022-11-09T01:11:23;3.57;;;1.47;;
21166;SDS011;10741;52.272;9.580;2022-11-09T01:13:49;4.67;;;1.47;;
21166;SDS011;10741;52.272;9.580;2022-11-09T01:16:17;3.33;;;1.47;;
21166;SDS011;10741;52.272;9.580;2022-11-09T01:18:44;1.57;;;1.33;;
21166;SDS011;10741;52.272;9.580;2022-11-09T01:21:11;2.50;;;1.40;;
21166;SDS011;10741;52.272;9.580;2022-11-09T01:23:38;3.10;;;1.80;;
21166;SDS011;10741;52.272;9.580;2022-11-09T01:26:05;3.93;;;1.50;;
21166;SDS011;10741;52.272;9.580;2022-11-09T01:28:32;3.63;;;1.23;;
21166;SDS011;10741;52.272;9.580;2022-11-09T01:31:01;2.83;;;1.50;;
21166;SDS011;10741;52.272;9.580;2022-11-09T01:33:30;2.43;;;1.40;;
21166;SDS011;10741;52.272;9.580;2022-11-09T01:36:03;2.10;;;1.47;;
21166;SDS011;10741;52.272;9.580;2022-11-09T01:38:30;4.60;;;1.40;;
21166;SDS011;10741;52.272;9.580;2022-11-09T01:40:56;3.67;;;1.60;;
21166;SDS011;10741;52.272;9.580;2022-11-09T01:43:22;2.07;;;1.43;;
21166;SDS011;10741;52.272;9.580;2022-11-09T01:45:53;9.03;;;1.73;;
21166;SDS011;10741;52.272;9.580;2022-11-09T01:48:41;2.27;;;1.50;;
21166;SDS011;10741;52.272;9.580;2022-11-09T01:51:12;3.97;;;1.63;;
21166;SDS011;10741;52.272;9.580;2022-11-09T01:53:44;1.53;;;1.13;;
21166;SDS011;10741;52.272;9.580;2022-11-09T01:56:13;3.80;;;1.67;;
21166;SDS011;10741;52.272;9.580;2022-11-09T01:58:47;3.70;;;1.70;;
21166;SDS011;10741;52.272;9.580;2022-11-09T02:01:16;1.70;;;1.53;;
21166;SDS011;10741;52.272;9.580;2022-11-09T02:03:47;2.47;;;1.37;;
21166;SDS011;10741;52.272;9.580;2022-11-09T02:06:17;1.77;;;1.40;;
21166;SDS011;10741;52.272;9.580;2022-11-09T02:08:46;1.57;;;1.30;;
21166;SDS011;10741;52.272;9.580;2022-11-09T02:11:15;2.13;;;1.50;;
21166;SDS011;10741;52.272;9.580;2022-11-09T02:14:01;3.33;;;1.23;;
21166;SDS011;10741;52.272;9.580;2022-11-09T02:16:28;2.37;;;1.60;;
21166;SDS011;10741;52.272;9.580;2022-11-09T02:18:55;2.40;;;1.90;;
21166;SDS011;10741;52.272;9.580;2022-11-09T02:21:23;1.80;;;1.27;;
21166;SDS011;10741;52.272;9.580;2022-11-09T02:23:51;2.30;;;1.57;;
21166;SDS011;10741;52.272;9.580;2022-11-09T02:26:18;2.80;;;1.30;;
21166;SDS011;10741;52.272;9.580;2022-11-09T02:28:58;4.33;;;1.83;;
21166;SDS011;10741;52.272;9.580;2022-11-09T02:31:27;2.33;;;1.57;;
21166;SDS011;10741;52.272;9.580;2022-11-09T02:34:07;3.17;;;1.70;;
21166;SDS011;10741;52.272;9.580;2022-11-09T02:36:36;2.23;;;1.40;;
21166;SDS011;10741;52.272;9.580;2022-11-09T02:39:02;1.93;;;1.60;;
21166;SDS011;10741;52.272;9.580;2022-11-09T02:41:29;2.37;;;1.67;;
21166;SDS011;10741;52.272;9.580;2022-11-09T02:43:56;2.80;;;1.90;;
21166;SDS011;10741;52.272;9.580;2022-11-09T02:46:31;1.93;;;1.53;;
21166;SDS011;10741;52.272;9.580;2022-11-09T02:48:59;2.10;;;1.37;;
21166;SDS011;10741;52.272;9.580;2022-11-09T02:51:26;4.03;;;1.30;;
21166;SDS011;10741;52.272;9.580;2022-11-09T02:53:51;3.80;;;1.53;;
21166;SDS011;10741;52.272;9.580;2022-11-09T02:56:17;4.03;;;1.83;;
21166;SDS011;10741;52.272;9.580;2022-11-09T02:58:43;2.53;;;1.80;;
21166;SDS011;10741;52.272;9.580;2022-11-09T03:01:09;3.03;;;1.50;;
21166;SDS011;10741;52.272;9.580;2022-11-09T03:03:35;5.07;;;1.77;;
21166;SDS011;10741;52.272;9.580;2022-11-09T03:06:01;2.03;;;1.50;;
21166;SDS011;10741;52.272;9.580;2022-11-09T03:08:27;4.50;;;1.63;;
21166;SDS011;10741;52.272;9.580;2022-11-09T03:10:52;2.93;;;1.70;;
21166;SDS011;10741;52.272;9.580;2022-11-09T03:13:18;2.20;;;1.80;;
21166;SDS011;10741;52.272;9.580;2022-11-09T03:15:44;2.57;;;1.87;;
21166;SDS011;10741;52.272;9.580;2022-11-09T03:18:10;6.33;;;3.20;;
21166;SDS011;10741;52.272;9.580;2022-11-09T03:20:35;2.30;;;1.50;;
21166;SDS011;10741;52.272;9.580;2022-11-09T03:23:01;1.40;;;1.30;;
21166;SDS011;10741;52.272;9.580;2022-11-09T03:25:27;2.27;;;1.30;;
21166;SDS011;10741;52.272;9.580;2022-11-09T03:27:59;1.97;;;1.47;;
21166;SDS011;10741;52.272;9.580;2022-11-09T03:30:26;2.27;;;1.40;;
21166;SDS011;10741;52.272;9.580;2022-11-09T03:33:02;2.17;;;1.47;;
21166;SDS011;10741;52.272;9.580;2022-11-09T03:35:31;2.40;;;1.60;;
21166;SDS011;10741;52.272;9.580;2022-11-09T03:37:57;2.33;;;1.70;;
21166;SDS011;10741;52.272;9.580;2022-11-09T03:40:22;1.97;;;1.30;;
21166;SDS011;10741;52.272;9.580;2022-11-09T03:42:48;1.80;;;1.40;;
21166;SDS011;10741;52.272;9.580;2022-11-09T03:45:15;3.00;;;1.40;;
21166;SDS011;10741;52.272;9.580;2022-11-09T03:47:42;1.63;;;1.23;;
21166;SDS011;10741;52.272;9.580;2022-11-09T03:50:09;1.47;;;1.30;;
21166;SDS011;10741;52.272;9.580;2022-11-09T03:52:35;2.93;;;1.60;;
21166;SDS011;10741;52.272;9.580;2022-11-09T03:55:02;2.33;;;1.37;;
21166;SDS011;10741;52.272;9.580;2022-11-09T03:57:28;1.93;;;1.40;;
21166;SDS011;10741;52.272;9.580;2022-11-09T03:59:54;3.10;;;1.63;;
21166;SDS011;10741;52.272;9.580;2022-11-09T04:02:19;1.20;;;1.10;;
21166;SDS011;10741;52.272;9.580;2022-11-09T04:04:45;1.70;;;1.33;;
21166;SDS011;10741;52.272;9.580;2022-11-09T04:07:12;3.17;;;1.57;;
21166;SDS011;10741;52.272;9.580;2022-11-09T04:09:38;2.20;;;1.50;;
21166;SDS011;10741;52.272;9.580;2022-11-09T04:12:04;2.23;;;1.37;;
21166;SDS011;10741;52.272;9.580;2022-11-09T04:14:30;2.83;;;1.50;;
21166;SDS011;10741;52.272;9.580;2022-11-09T04:16:56;2.70;;;1.50;;
21166;SDS011;10741;52.272;9.580;2022-11-09T04:19:22;3.47;;;1.40;;
21166;SDS011;10741;52.272;9.580;2022-11-09T04:21:48;5.50;;;1.50;;
21166;SDS011;10741;52.272;9.580;2022-11-09T04:24:14;2.00;;;1.13;;
21166;SDS011;10741;52.272;9.580;2022-11-09T04:26:40;4.37;;;1.40;;
21166;SDS011;10741;52.272;9.580;2022-11-09T04:29:06;3.33;;;1.30;;
21166;SDS011;10741;52.272;9.580;2022-11-09T04:31:32;2.10;;;1.63;;
21166;SDS011;10741;52.272;9.580;2022-11-09T04:33:57;4.00;;;1.40;;
21166;SDS011;10741;52.272;9.580;2022-11-09T04:36:23;2.43;;;1.20;;
21166;SDS011;10741;52.272;9.580;2022-11-09T04:38:49;3.27;;;1.10;;
21166;SDS011;10741;52.272;9.580;2022-11-09T04:41:15;1.73;;;1.40;;
21166;SDS011;10741;52.272;9.580;2022-11-09T04:43:41;1.30;;;1.20;;
21166;SDS011;10741;52.272;9.580;2022-11-09T04:46:07;1.20;;;1.03;;
21166;SDS011;10741;52.272;9.580;2022-11-09T04:48:32;3.20;;;1.20;;
21166;SDS011;10741;52.272;9.580;2022-11-09T04:50:59;1.70;;;1.10;;
21166;SDS011;10741;52.272;9.580;2022-11-09T04:53:29;1.37;;;1.20;;
21166;SDS011;10741;52.272;9.580;2022-11-09T04:55:55;1.83;;;1.23;;
21166;SDS011;10741;52.272;9.580;2022-11-09T04:58:21;1.30;;;0.97;;
21166;SDS011;10741;52.272;9.580;2022-11-09T05:00:47;3.33;;;1.20;;
21166;SDS011;10741;52.272;9.580;2022-11-09T05:03:13;2.50;;;1.40;;
21166;SDS011;10741;52.272;9.580;2022-11-09T05:05:39;2.10;;;1.00;;
21166;SDS011;10741;52.272;9.580;2022-11-09T05:08:06;1.70;;;1.47;;
21166;SDS011;10741;52.272;9.580;2022-11-09T05:10:32;1.23;;;1.10;;
21166;SDS011;10741;52.272;9.580;2022-11-09T05:13:02;4.67;;;1.50;;
21166;SDS011;10741;52.272;9.580;2022-11-09T05:15:29;1.60;;;1.20;;
21166;SDS011;10741;52.272;9.580;2022-11-09T05:17:55;3.23;;;1.30;;
21166;SDS011;10741;52.272;9.580;2022-11-09T05:20:22;3.50;;;1.60;;
21166;SDS011;10741;52.272;9.580;2022-11-09T05:22:48;2.93;;;1.27;;
21166;SDS011;10741;52.272;9.580;2022-11-09T05:25:32;1.80;;;1.30;;
21166;SDS011;10741;52.272;9.580;2022-11-09T05:27:58;2.80;;;1.30;;
21166;SDS011;10741;52.272;9.580;2022-11-09T05:30:24;1.57;;;1.33;;
21166;SDS011;10741;52.272;9.580;2022-11-09T05:32:50;2.53;;;1.50;;
21166;SDS011;10741;52.272;9.580;2022-11-09T05:35:15;2.93;;;1.73;;
21166;SDS011;10741;52.272;9.580;2022-11-09T05:37:41;2.60;;;1.20;;
21166;SDS011;10741;52.272;9.580;2022-11-09T05:40:11;1.87;;;1.47;;
21166;SDS011;10741;52.272;9.580;2022-11-09T05:42:37;3.13;;;1.10;;
21166;SDS011;10741;52.272;9.580;2022-11-09T05:45:05;3.93;;;1.70;;
21166;SDS011;10741;52.272;9.580;2022-11-09T05:47:35;2.67;;;1.30;;
21166;SDS011;10741;52.272;9.580;2022-11-09T05:50:02;3.23;;;1.47;;
21166;SDS011;10741;52.272;9.580;2022-11-09T05:52:28;1.93;;;1.40;;
21166;SDS011;10741;52.272;9.580;2022-11-09T05:54:54;3.37;;;2.20;;
21166;SDS011;10741;52.272;9.580;2022-11-09T05:57:20;4.17;;;2.90;;
21166;SDS011;10741;52.272;9.580;2022-11-09T05:59:46;1.77;;;1.50;;
21166;SDS011;10741;52.272;9.580;2022-11-09T06:02:12;2.47;;;1.93;;
21166;SDS011;10741;52.272;9.580;2022-11-09T06:04:37;3.30;;;2.23;;
21166;SDS011;10741;52.272;9.580;2022-11-09T06:07:03;2.87;;;2.10;;
21166;SDS011;10741;52.272;9.580;2022-11-09T06:09:29;4.33;;;2.27;;
21166;SDS011;10741;52.272;9.580;2022-11-09T06:11:55;4.80;;;2.10;;
21166;SDS011;10741;52.272;9.580;2022-11-09T06:14:20;3.27;;;2.07;;
21166;SDS011;10741;52.272;9.580;2022-11-09T06:16:46;3.50;;;2.27;;
21166;SDS011;10741;52.272;9.580;2022-11-09T06:19:12;3.40;;;2.60;;
21166;SDS011;10741;52.272;9.580;2022-11-09T06:21:37;3.93;;;2.87;;
21166;SDS011;10741;52.272;9.580;2022-11-09T06:24:03;2.07;;;1.50;;
21166;SDS011;10741;52.272;9.580;2022-11-09T06:26:29;3.30;;;1.80;;
21166;SDS011;10741;52.272;9.580;2022-11-09T06:28:55;3.97;;;2.20;;
21166;SDS011;10741;52.272;9.580;2022-11-09T06:31:21;4.47;;;2.80;;
21166;SDS011;10741;52.272;9.580;2022-11-09T06:33:46;2.17;;;1.87;;
21166;SDS011;10741;52.272;9.580;2022-11-09T06:36:12;3.53;;;2.33;;
21166;SDS011;10741;52.272;9.580;2022-11-09T06:38:38;4.70;;;2.37;;
21166;SDS011;10741;52.272;9.580;2022-11-09T06:41:04;6.20;;;3.80;;
21166;SDS011;10741;52.272;9.580;2022-11-09T06:43:30;4.83;;;3.03;;
21166;SDS011;10741;52.272;9.580;2022-11-09T06:45:56;3.03;;;2.40;;
21166;SDS011;10741;52.272;9.580;2022-11-09T06:48:22;4.13;;;2.27;;
21166;SDS011;10741;52.272;9.580;2022-11-09T06:50:48;4.47;;;2.10;;
21166;SDS011;10741;52.272;9.580;2022-11-09T06:53:14;3.50;;;2.13;;
21166;SDS011;10741;52.272;9.580;2022-11-09T06:55:41;2.90;;;2.30;;
21166;SDS011;10741;52.272;9.580;2022-11-09T06:58:08;2.83;;;2.10;;
21166;SDS011;10741;52.272;9.580;2022-11-09T07:00:39;3.57;;;2.13;;
21166;SDS011;10741;52.272;9.580;2022-11-09T07:03:06;3.47;;;2.37;;
21166;SDS011;10741;52.272;9.580;2022-11-09T07:05:32;4.07;;;2.23;;
21166;SDS011;10741;52.272;9.580;2022-11-09T07:08:02;3.50;;;1.77;;
21166;SDS011;10741;52.272;9.580;2022-11-09T07:10:28;2.97;;;2.37;;
21166;SDS011;10741;52.272;9.580;2022-11-09T07:12:55;2.30;;;2.10;;
21166;SDS011;10741;52.272;9.580;2022-11-09T07:15:22;3.37;;;2.10;;
21166;SDS011;10741;52.272;9.580;2022-11-09T07:17:47;3.13;;;1.90;;
21166;SDS011;10741;52.272;9.580;2022-11-09T07:20:13;2.20;;;1.80;;
21166;SDS011;10741;52.272;9.580;2022-11-09T07:22:39;2.30;;;1.63;;
21166;SDS011;10741;52.272;9.580;2022-11-09T07:25:06;2.93;;;1.93;;
21166;SDS011;10741;52.272;9.580;2022-11-09T07:27:34;2.73;;;2.10;;
21166;SDS011;10741;52.272;9.580;2022-11-09T07:30:00;3.17;;;2.07;;
21166;SDS011;10741;52.272;9.580;2022-11-09T07:32:28;3.90;;;2.10;;
21166;SDS011;10741;52.272;9.580;2022-11-09T07:34:56;4.07;;;2.00;;
21166;SDS011;10741;52.272;9.580;2022-11-09T07:37:22;3.83;;;2.13;;
21166;SDS011;10741;52.272;9.580;2022-11-09T07:39:48;3.03;;;1.87;;
21166;SDS011;10741;52.272;9.580;2022-11-09T07:42:13;2.50;;;1.73;;
21166;SDS011;10741;52.272;9.580;2022-11-09T07:44:39;2.73;;;2.00;;
21166;SDS011;10741;52.272;9.580;2022-11-09T07:47:05;3.03;;;2.10;;
21166;SDS011;10741;52.272;9.580;2022-11-09T07:49:31;3.17;;;1.77;;
21166;SDS011;10741;52.272;9.580;2022-11-09T07:51:56;2.67;;;1.83;;
21166;SDS011;10741;52.272;9.580;2022-11-09T07:54:22;3.03;;;2.00;;
21166;SDS011;10741;52.272;9.580;2022-11-09T07:56:49;2.83;;;1.80;;
21166;SDS011;10741;52.272;9.580;2022-11-09T07:59:15;4.70;;;1.90;;
21166;SDS011;10741;52.272;9.580;2022-11-09T08:01:41;2.43;;;1.57;;
21166;SDS011;10741;52.272;9.580;2022-11-09T08:04:07;3.30;;;2.30;;
21166;SDS011;10741;52.272;9.580;2022-11-09T08:06:33;4.90;;;1.90;;
21166;SDS011;10741;52.272;9.580;2022-11-09T08:08:58;6.23;;;2.30;;
21166;SDS011;10741;52.272;9.580;2022-11-09T08:11:25;3.40;;;1.83;;
21166;SDS011;10741;52.272;9.580;2022-11-09T08:13:51;4.20;;;1.80;;
21166;SDS011;10741;52.272;9.580;2022-11-09T08:16:17;2.67;;;1.63;;
21166;SDS011;10741;52.272;9.580;2022-11-09T08:18:42;4.23;;;1.90;;
21166;SDS011;10741;52.272;9.580;2022-11-09T08:21:08;2.17;;;1.70;;
21166;SDS011;10741;52.272;9.580;2022-11-09T08:23:34;2.43;;;1.80;;
21166;SDS011;10741;52.272;9.580;2022-11-09T08:26:05;3.30;;;1.60;;
21166;SDS011;10741;52.272;9.580;2022-11-09T08:28:52;1.97;;;1.40;;
21166;SDS011;10741;52.272;9.580;2022-11-09T08:31:20;3.57;;;1.77;;
21166;SDS011;10741;52.272;9.580;2022-11-09T08:33:45;3.70;;;2.10;;
21166;SDS011;10741;52.272;9.580;2022-11-09T08:36:12;3.73;;;1.90;;
21166;SDS011;10741;52.272;9.580;2022-11-09T08:38:39;4.73;;;1.80;;
21166;SDS011;10741;52.272;9.580;2022-11-09T08:41:06;5.10;;;2.00;;
21166;SDS011;10741;52.272;9.580;2022-11-09T08:43:32;3.53;;;1.97;;
21166;SDS011;10741;52.272;9.580;2022-11-09T08:45:58;2.87;;;1.83;;
21166;SDS011;10741;52.272;9.580;2022-11-09T08:48:24;3.13;;;1.80;;
21166;SDS011;10741;52.272;9.580;2022-11-09T08:50:52;3.73;;;2.17;;
21166;SDS011;10741;52.272;9.580;2022-11-09T08:53:44;3.40;;;1.80;;
21166;SDS011;10741;52.272;9.580;2022-11-09T08:56:10;3.87;;;2.10;;
21166;SDS011;10741;52.272;9.580;2022-11-09T08:58:36;3.13;;;2.10;;
21166;SDS011;10741;52.272;9.580;2022-11-09T09:01:06;1.93;;;1.73;;
21166;SDS011;10741;52.272;9.580;2022-11-09T09:03:33;3.53;;;2.10;;
21166;SDS011;10741;52.272;9.580;2022-11-09T09:06:05;2.97;;;1.93;;
21166;SDS011;10741;52.272;9.580;2022-11-09T09:08:32;4.27;;;2.50;;
21166;SDS011;10741;52.272;9.580;2022-11-09T09:11:01;4.23;;;2.03;;
21166;SDS011;10741;52.272;9.580;2022-11-09T09:13:29;3.83;;;1.93;;
21166;SDS011;10741;52.272;9.580;2022-11-09T09:15:55;2.63;;;1.93;;
21166;SDS011;10741;52.272;9.580;2022-11-09T09:18:21;2.90;;;2.10;;
21166;SDS011;10741;52.272;9.580;2022-11-09T09:20:47;3.07;;;2.07;;
21166;SDS011;10741;52.272;9.580;2022-11-09T09:23:13;3.13;;;1.83;;
21166;SDS011;10741;52.272;9.580;2022-11-09T09:25:39;1.97;;;1.40;;
21166;SDS011;10741;52.272;9.580;2022-11-09T09:28:05;3.47;;;1.40;;
21166;SDS011;10741;52.272;9.580;2022-11-09T09:30:31;1.93;;;1.27;;
21166;SDS011;10741;52.272;9.580;2022-11-09T09:32:57;2.53;;;1.20;;
21166;SDS011;10741;52.272;9.580;2022-11-09T09:35:24;4.83;;;1.40;;
21166;SDS011;10741;52.272;9.580;2022-11-09T09:37:51;5.00;;;1.20;;
21166;SDS011;10741;52.272;9.580;2022-11-09T09:40:25;2.73;;;1.20;;
21166;SDS011;10741;52.272;9.580;2022-11-09T09:43:04;4.37;;;1.33;;
21166;SDS011;10741;52.272;9.580;2022-11-09T09:45:31;2.60;;;1.20;;
21166;SDS011;10741;52.272;9.580;2022-11-09T09:50:48;3.97;;;1.00;;
21166;SDS011;10741;52.272;9.580;2022-11-09T09:55:53;5.00;;;1.40;;
21166;SDS011;10741;52.272;9.580;2022-11-09T09:58:30;2.53;;;0.90;;
21166;SDS011;10741;52.272;9.580;2022-11-09T10:01:05;3.43;;;1.10;;
21166;SDS011;10741;52.272;9.580;2022-11-09T10:03:36;3.90;;;1.00;;
21166;SDS011;10741;52.272;9.580;2022-11-09T10:08:56;4.43;;;1.10;;
21166;SDS011;10741;52.272;9.580;2022-11-09T10:11:34;1.90;;;0.87;;
21166;SDS011;10741;52.272;9.580;2022-11-09T10:22:25;3.90;;;0.93;;
21166;SDS011;10741;52.272;9.580;2022-11-09T10:25:13;4.47;;;1.10;;
21166;SDS011;10741;52.272;9.580;2022-11-09T10:27:50;3.17;;;1.33;;
21166;SDS011;10741;52.272;9.580;2022-11-09T10:30:19;4.13;;;1.20;;
21166;SDS011;10741;52.272;9.580;2022-11-09T10:32:50;2.50;;;1.20;;
21166;SDS011;10741;52.272;9.580;2022-11-09T10:35:34;3.00;;;1.60;;
21166;SDS011;10741;52.272;9.580;2022-11-09T10:38:04;3.27;;;1.13;;
21166;SDS011;10741;52.272;9.580;2022-11-09T10:40:41;5.10;;;1.30;;
21166;SDS011;10741;52.272;9.580;2022-11-09T10:43:21;2.20;;;1.10;;
21166;SDS011;10741;52.272;9.580;2022-11-09T10:45:56;5.93;;;1.40;;
21166;SDS011;10741;52.272;9.580;2022-11-09T10:48:34;1.73;;;1.00;;
21166;SDS011;10741;52.272;9.580;2022-11-09T10:51:01;3.00;;;1.00;;
21166;SDS011;10741;52.272;9.580;2022-11-09T10:53:28;2.20;;;0.90;;
21166;SDS011;10741;52.272;9.580;2022-11-09T11:01:21;1.93;;;0.77;;
21166;SDS011;10741;52.272;9.580;2022-11-09T11:03:48;3.03;;;0.70;;
21166;SDS011;10741;52.272;9.580;2022-11-09T11:11:30;2.53;;;0.90;;
21166;SDS011;10741;52.272;9.580;2022-11-09T11:16:58;1.87;;;1.00;;
21166;SDS011;10741;52.272;9.580;2022-11-09T11:19:34;2.37;;;0.80;;
21166;SDS011;10741;52.272;9.580;2022-11-09T11:22:13;3.10;;;1.10;;
21166;SDS011;10741;52.272;9.580;2022-11-09T11:24:59;2.00;;;0.90;;
21166;SDS011;10741;52.272;9.580;2022-11-09T11:32:55;4.40;;;1.17;;
21166;SDS011;10741;52.272;9.580;2022-11-09T11:35:35;3.50;;;1.10;;
21166;SDS011;10741;52.272;9.580;2022-11-09T11:41:22;2.40;;;0.80;;
21166;SDS011;10741;52.272;9.580;2022-11-09T11:47:00;3.10;;;0.90;;
21166;SDS011;10741;52.272;9.580;2022-11-09T11:50:16;2.77;;;0.80;;
21166;SDS011;10741;52.272;9.580;2022-11-09T11:53:06;2.13;;;1.20;;
21166;SDS011;10741;52.272;9.580;2022-11-09T12:00:58;1.90;;;1.07;;
21166;SDS011;10741;52.272;9.580;2022-11-09T12:22:37;1.57;;;1.40;;
21166;SDS011;10741;52.272;9.580;2022-11-09T12:25:21;2.40;;;1.30;;
21166;SDS011;10741;52.272;9.580;2022-11-09T12:31:11;3.63;;;1.57;;
21166;SDS011;10741;52.272;9.580;2022-11-09T12:33:50;3.13;;;1.20;;
21166;SDS011;10741;52.272;9.580;2022-11-09T12:36:46;2.43;;;1.20;;
21166;SDS011;10741;52.272;9.580;2022-11-09T12:39:52;2.30;;;1.00;;
21166;SDS011;10741;52.272;9.580;2022-11-09T12:42:55;2.87;;;1.23;;
21166;SDS011;10741;52.272;9.580;2022-11-09T12:47:46;2.80;;;1.40;;
21166;SDS011;10741;52.272;9.580;2022-11-09T12:50:12;2.43;;;1.60;;
21166;SDS011;10741;52.272;9.580;2022-11-09T12:52:43;3.93;;;1.20;;
21166;SDS011;10741;52.272;9.580;2022-11-09T12:55:14;1.70;;;1.00;;
21166;SDS011;10741;52.272;9.580;2022-11-09T12:58:01;4.50;;;1.73;;
21166;SDS011;10741;52.272;9.580;2022-11-09T13:03:06;2.63;;;0.90;;
21166;SDS011;10741;52.272;9.580;2022-11-09T13:05:43;4.17;;;0.70;;
21166;SDS011;10741;52.272;9.580;2022-11-09T13:08:19;2.27;;;1.00;;
21166;SDS011;10741;52.272;9.580;2022-11-09T13:11:06;2.40;;;1.03;;
21166;SDS011;10741;52.272;9.580;2022-11-09T13:13:33;1.50;;;0.60;;
21166;SDS011;10741;52.272;9.580;2022-11-09T13:23:47;1.47;;;0.90;;
21166;SDS011;10741;52.272;9.580;2022-11-09T13:32:21;0.83;;;0.50;;
21166;SDS011;10741;52.272;9.580;2022-11-09T13:37:36;0.90;;;0.67;;
21166;SDS011;10741;52.272;9.580;2022-11-09T13:43:16;2.03;;;0.63;;
21166;SDS011;10741;52.272;9.580;2022-11-09T13:45:55;0.73;;;0.50;;
21166;SDS011;10741;52.272;9.580;2022-11-09T13:48:30;3.83;;;0.80;;
21166;SDS011;10741;52.272;9.580;2022-11-09T13:51:01;3.27;;;0.90;;
21166;SDS011;10741;52.272;9.580;2022-11-09T13:53:30;2.33;;;0.83;;
21166;SDS011;10741;52.272;9.580;2022-11-09T13:56:25;3.73;;;1.20;;
21166;SDS011;10741;52.272;9.580;2022-11-09T14:01:59;2.27;;;0.80;;
21166;SDS011;10741;52.272;9.580;2022-11-09T14:04:35;2.00;;;1.00;;
21166;SDS011;10741;52.272;9.580;2022-11-09T14:07:11;1.90;;;0.90;;
21166;SDS011;10741;52.272;9.580;2022-11-09T14:10:05;1.73;;;1.00;;
21166;SDS011;10741;52.272;9.580;2022-11-09T14:12:35;5.23;;;1.20;;
21166;SDS011;10741;52.272;9.580;2022-11-09T14:18:01;2.23;;;0.70;;
21166;SDS011;10741;52.272;9.580;2022-11-09T14:23:35;1.23;;;0.60;;
21166;SDS011;10741;52.272;9.580;2022-11-09T14:26:08;3.93;;;0.60;;
21166;SDS011;10741;52.272;9.580;2022-11-09T14:28:40;1.93;;;0.90;;
21166;SDS011;10741;52.272;9.580;2022-11-09T14:31:18;3.47;;;0.80;;
21166;SDS011;10741;52.272;9.580;2022-11-09T14:33:59;3.23;;;0.70;;
21166;SDS011;10741;52.272;9.580;2022-11-09T14:36:27;3.37;;;0.80;;
21166;SDS011;10741;52.272;9.580;2022-11-09T14:38:54;3.13;;;0.80;;
21166;SDS011;10741;52.272;9.580;2022-11-09T14:41:23;2.77;;;0.70;;
21166;SDS011;10741;52.272;9.580;2022-11-09T14:43:52;2.77;;;0.80;;
21166;SDS011;10741;52.272;9.580;2022-11-09T14:46:21;3.77;;;1.00;;
21166;SDS011;10741;52.272;9.580;2022-11-09T14:48:56;1.80;;;0.90;;
21166;SDS011;10741;52.272;9.580;2022-11-09T14:51:33;2.33;;;1.03;;
21166;SDS011;10741;52.272;9.580;2022-11-09T14:54:02;2.00;;;1.10;;
21166;SDS011;10741;52.272;9.580;2022-11-09T14:56:33;2.17;;;0.80;;
21166;SDS011;10741;52.272;9.580;2022-11-09T14:59:03;2.20;;;0.80;;
21166;SDS011;10741;52.272;9.580;2022-11-09T15:01:30;5.00;;;0.80;;
21166;SDS011;10741;52.272;9.580;2022-11-09T15:06:31;3.17;;;0.70;;
21166;SDS011;10741;52.272;9.580;2022-11-09T15:09:08;3.57;;;0.70;;
21166;SDS011;10741;52.272;9.580;2022-11-09T15:11:51;2.00;;;0.70;;
21166;SDS011;10741;52.272;9.580;2022-11-09T15:16:43;1.73;;;0.80;;
21166;SDS011;10741;52.272;9.580;2022-11-09T15:21:48;3.53;;;1.00;;
21166;SDS011;10741;52.272;9.580;2022-11-09T15:24:15;4.37;;;0.80;;
21166;SDS011;10741;52.272;9.580;2022-11-09T15:26:43;4.23;;;1.10;;
21166;SDS011;10741;52.272;9.580;2022-11-09T15:29:34;2.70;;;1.07;;
21166;SDS011;10741;52.272;9.580;2022-11-09T15:32:05;4.10;;;1.00;;
21166;SDS011;10741;52.272;9.580;2022-11-09T15:34:40;3.30;;;1.10;;
21166;SDS011;10741;52.272;9.580;2022-11-09T15:39:45;2.87;;;1.00;;
21166;SDS011;10741;52.272;9.580;2022-11-09T15:42:11;2.67;;;0.90;;
21166;SDS011;10741;52.272;9.580;2022-11-09T15:44:37;3.97;;;0.80;;
21166;SDS011;10741;52.272;9.580;2022-11-09T15:47:03;4.03;;;1.03;;
21166;SDS011;10741;52.272;9.580;2022-11-09T15:49:45;3.67;;;1.13;;
21166;SDS011;10741;52.272;9.580;2022-11-09T15:52:11;5.10;;;1.10;;
21166;SDS011;10741;52.272;9.580;2022-11-09T15:54:37;4.03;;;1.00;;
21166;SDS011;10741;52.272;9.580;2022-11-09T15:57:03;2.67;;;0.80;;
21166;SDS011;10741;52.272;9.580;2022-11-09T15:59:29;3.10;;;1.10;;
21166;SDS011;10741;52.272;9.580;2022-11-09T16:01:54;3.43;;;0.93;;
21166;SDS011;10741;52.272;9.580;2022-11-09T16:04:20;3.60;;;1.33;;
21166;SDS011;10741;52.272;9.580;2022-11-09T16:06:46;2.80;;;1.17;;
21166;SDS011;10741;52.272;9.580;2022-11-09T16:09:12;3.00;;;1.00;;
21166;SDS011;10741;52.272;9.580;2022-11-09T16:11:38;3.07;;;0.90;;
21166;SDS011;10741;52.272;9.580;2022-11-09T16:14:04;5.73;;;2.00;;
21166;SDS011;10741;52.272;9.580;2022-11-09T16:16:30;4.20;;;1.43;;
21166;SDS011;10741;52.272;9.580;2022-11-09T16:18:56;4.77;;;1.10;;
21166;SDS011;10741;52.272;9.580;2022-11-09T16:21:22;4.10;;;1.50;;
21166;SDS011;10741;52.272;9.580;2022-11-09T16:23:48;3.97;;;0.90;;
21166;SDS011;10741;52.272;9.580;2022-11-09T16:26:16;2.70;;;1.00;;
21166;SDS011;10741;52.272;9.580;2022-11-09T16:28:44;5.90;;;1.13;;
21166;SDS011;10741;52.272;9.580;2022-11-09T16:31:11;5.33;;;1.23;;
21166;SDS011;10741;52.272;9.580;2022-11-09T16:33:37;3.90;;;1.17;;
21166;SDS011;10741;52.272;9.580;2022-11-09T16:36:19;7.00;;;1.70;;
21166;SDS011;10741;52.272;9.580;2022-11-09T16:38:48;3.60;;;1.10;;
21166;SDS011;10741;52.272;9.580;2022-11-09T16:41:17;4.40;;;1.30;;
21166;SDS011;10741;52.272;9.580;2022-11-09T16:43:44;4.30;;;1.00;;
21166;SDS011;10741;52.272;9.580;2022-11-09T16:46:16;2.83;;;1.00;;
21166;SDS011;10741;52.272;9.580;2022-11-09T16:48:48;2.77;;;1.00;;
21166;SDS011;10741;52.272;9.580;2022-11-09T16:51:14;3.13;;;1.00;;
21166;SDS011;10741;52.272;9.580;2022-11-09T16:53:39;4.70;;;1.47;;